Time;durP1;ratioP1;P1;durP2;ratioP2;P2;SDS_P1;SDS_P2;PMS_P1;PMS_P2;Temp;Humidity;BMP_temperature;BMP_pressure;BME280_temperature;BME280_humidity;BME280_pressure;Samples;Min_cycle;Max_cycle;Signal;HPM_P1;HPM_P2
2022/08/26 00:02:06;;;;;;;4.22;3.92;;;26.30;66.00;;;;;;5040498;28;43482;-67
2022/08/26 00:04:34;;;;;;;4.07;3.78;;;26.30;66.00;;;;;;5041678;28;43905;-67
2022/08/26 00:07:02;;;;;;;4.07;3.78;;;26.30;66.10;;;;;;5037165;28;43770;-67
2022/08/26 00:09:31;;;;;;;4.80;4.40;;;26.30;66.10;;;;;;5031458;28;43468;-67
2022/08/26 00:12:05;;;;;;;4.38;4.07;;;26.30;66.10;;;;;;5036693;28;43470;-67
2022/08/26 00:14:32;;;;;;;4.68;4.30;;;26.30;66.10;;;;;;5043127;28;44973;-67
2022/08/26 00:17:03;;;;;;;4.25;3.95;;;26.30;66.10;;;;;;5043657;28;43534;-67
2022/08/26 00:19:34;;;;;;;4.47;4.13;;;26.30;66.20;;;;;;5029429;28;43461;-67
2022/08/26 00:22:02;;;;;;;4.00;3.70;;;26.30;66.10;;;;;;5032729;28;43543;-67
2022/08/26 00:24:30;;;;;;;4.30;4.00;;;26.30;66.10;;;;;;5041460;28;43946;-67
2022/08/26 00:26:58;;;;;;;4.25;3.95;;;26.30;66.20;;;;;;5044461;28;43411;-67
2022/08/26 00:29:27;;;;;;;3.88;3.58;;;26.30;66.10;;;;;;5039651;28;43391;-67
2022/08/26 00:31:57;;;;;;;4.15;3.85;;;26.30;66.20;;;;;;5040987;28;43538;-67
2022/08/26 00:34:25;;;;;;;4.78;4.38;;;26.30;66.10;;;;;;5041049;28;44068;-67
2022/08/26 00:36:53;;;;;;;4.60;4.20;;;26.30;66.10;;;;;;5059550;28;43525;-67
2022/08/26 00:39:21;;;;;;;4.18;3.78;;;26.30;66.20;;;;;;5042965;28;43497;-67
2022/08/26 00:41:49;;;;;;;4.22;3.92;;;26.30;66.20;;;;;;5039243;28;43515;-67
2022/08/26 00:44:18;;;;;;;4.63;4.05;;;26.30;66.20;;;;;;5042343;28;44055;-67
2022/08/26 00:46:50;;;;;;;4.07;3.78;;;26.20;66.10;;;;;;5031496;28;43503;-67
2022/08/26 00:49:38;;;;;;;4.20;3.80;;;26.20;66.10;;;;;;5030691;28;43521;-67
2022/08/26 00:52:14;;;;;;;4.32;4.00;;;26.30;66.20;;;;;;5035648;28;43542;-67
2022/08/26 00:54:52;;;;;;;3.92;3.67;;;26.20;66.20;;;;;;5029840;28;45137;-67
2022/08/26 00:57:21;;;;;;;4.07;3.75;;;26.20;66.10;;;;;;5037107;28;43387;-67
2022/08/26 00:59:55;;;;;;;4.05;3.75;;;26.20;66.20;;;;;;5038220;28;43614;-67
2022/08/26 01:02:23;;;;;;;4.15;3.80;;;26.20;66.20;;;;;;5041903;28;43437;-67
2022/08/26 01:04:54;;;;;;;4.20;3.90;;;26.20;66.20;;;;;;5042268;28;43897;-67
2022/08/26 01:07:26;;;;;;;4.07;3.78;;;26.20;66.20;;;;;;5037411;28;44155;-67
2022/08/26 01:10:00;;;;;;;4.32;3.97;;;26.20;66.20;;;;;;5054730;28;43416;-67
2022/08/26 01:12:32;;;;;;;4.82;4.32;;;26.20;66.30;;;;;;5041765;28;43514;-67
2022/08/26 01:15:01;;;;;;;4.25;3.85;;;26.20;66.20;;;;;;5038448;28;44042;-67
2022/08/26 01:17:28;;;;;;;4.28;3.97;;;26.20;66.30;;;;;;5034281;28;43376;-66
2022/08/26 01:20:16;;;;;;;4.20;3.90;;;26.20;66.30;;;;;;5040696;28;43434;-67
2022/08/26 01:23:00;;;;;;;4.28;3.97;;;26.20;66.30;;;;;;5026503;28;43462;-67
2022/08/26 01:25:32;;;;;;;4.22;3.92;;;26.20;66.30;;;;;;5032048;28;43805;-67
2022/08/26 01:28:04;;;;;;;4.05;3.67;;;26.20;66.30;;;;;;5042918;28;43394;-67
2022/08/26 01:30:34;;;;;;;4.57;4.18;;;26.20;66.30;;;;;;5037528;28;43522;-66
2022/08/26 01:33:05;;;;;;;4.25;3.85;;;26.20;66.30;;;;;;5031598;28;43562;-67
2022/08/26 01:35:33;;;;;;;3.92;3.63;;;26.20;66.30;;;;;;5036194;28;44715;-67
2022/08/26 01:38:01;;;;;;;4.72;4.32;;;26.20;66.30;;;;;;5037934;28;43812;-67
2022/08/26 01:40:31;;;;;;;3.90;3.60;;;26.10;66.20;;;;;;5038057;28;43551;-67
2022/08/26 01:43:01;;;;;;;4.55;4.15;;;26.10;66.20;;;;;;5029587;28;43405;-67
2022/08/26 01:45:30;;;;;;;4.35;3.95;;;26.20;66.20;;;;;;5036667;28;43885;-67
2022/08/26 01:48:04;;;;;;;4.22;3.92;;;26.10;66.20;;;;;;5040020;28;43651;-67
2022/08/26 01:50:34;;;;;;;3.92;3.63;;;26.20;66.30;;;;;;5036157;28;43477;-67
2022/08/26 01:53:06;;;;;;;3.80;3.50;;;26.10;66.20;;;;;;5039983;28;43605;-67
2022/08/26 01:55:38;;;;;;;3.90;3.60;;;26.10;66.20;;;;;;5042476;28;43892;-67
2022/08/26 01:58:12;;;;;;;4.63;4.22;;;26.10;66.20;;;;;;5036325;28;43936;-67
2022/08/26 02:00:40;;;;;;;3.95;3.60;;;26.10;66.20;;;;;;5033981;28;43545;-67
2022/08/26 02:03:17;;;;;;;3.95;3.72;;;26.10;66.20;;;;;;5032544;28;43469;-67
2022/08/26 02:05:46;;;;;;;3.67;3.47;;;26.10;66.30;;;;;;5037145;28;44977;-67
2022/08/26 02:08:24;;;;;;;4.28;3.97;;;26.10;66.30;;;;;;5035591;28;43544;-67
2022/08/26 02:10:53;;;;;;;4.30;4.00;;;26.10;66.30;;;;;;5036616;28;43493;-67
2022/08/26 02:13:24;;;;;;;4.57;4.18;;;26.10;66.20;;;;;;5040357;28;43384;-67
2022/08/26 02:15:53;;;;;;;4.60;4.20;;;26.10;66.90;;;;;;5041636;28;44959;-67
2022/08/26 02:18:22;;;;;;;4.53;4.13;;;26.10;66.30;;;;;;5032692;28;43647;-66
2022/08/26 02:20:53;;;;;;;4.70;4.30;;;26.10;66.40;;;;;;5030903;28;43499;-67
2022/08/26 02:23:20;;;;;;;4.10;3.80;;;26.10;66.30;;;;;;5035138;28;43565;-67
2022/08/26 02:26:11;;;;;;;4.80;4.33;;;26.10;66.40;;;;;;5041108;28;44729;-67
2022/08/26 02:29:01;;;;;;;4.32;4.00;;;26.10;66.40;;;;;;5041068;28;43412;-67
2022/08/26 02:31:28;;;;;;;4.63;4.22;;;26.00;66.40;;;;;;5034115;28;43438;-67
2022/08/26 02:34:14;;;;;;;4.22;3.83;;;26.10;66.40;;;;;;5039967;28;43609;-67
2022/08/26 02:36:42;;;;;;;4.38;3.97;;;26.00;66.30;;;;;;5029326;28;43862;-67
2022/08/26 02:39:10;;;;;;;4.50;4.10;;;26.00;66.40;;;;;;5038902;28;43970;-67
2022/08/26 02:41:37;;;;;;;4.93;4.53;;;26.10;66.40;;;;;;5032093;28;43451;-67
2022/08/26 02:44:12;;;;;;;4.30;4.00;;;26.00;66.30;;;;;;5040704;28;43557;-67
2022/08/26 02:46:40;;;;;;;4.70;4.30;;;26.00;66.20;;;;;;5041644;28;44693;-67
2022/08/26 02:49:14;;;;;;;4.38;4.05;;;26.10;66.30;;;;;;5028791;28;43559;-67
2022/08/26 02:51:43;;;;;;;4.70;4.30;;;26.00;66.30;;;;;;5037967;28;43489;-67
2022/08/26 02:54:11;;;;;;;4.68;4.28;;;26.00;66.40;;;;;;5057806;28;43542;-67
2022/08/26 02:56:39;;;;;;;4.57;4.18;;;26.00;66.30;;;;;;5029972;28;44673;-67
2022/08/26 02:59:07;;;;;;;4.93;4.53;;;26.00;66.30;;;;;;5029825;28;43515;-67
2022/08/26 03:01:35;;;;;;;4.28;3.97;;;26.00;66.30;;;;;;5040202;28;43490;-67
2022/08/26 03:04:05;;;;;;;5.25;4.75;;;26.00;66.40;;;;;;5029740;28;43537;-67
2022/08/26 03:06:32;;;;;;;4.68;4.28;;;26.00;66.30;;;;;;5031120;28;44685;-67
2022/08/26 03:09:00;;;;;;;4.93;4.60;;;26.00;66.30;;;;;;5035675;28;44240;-67
2022/08/26 03:11:27;;;;;;;4.80;4.40;;;26.00;66.40;;;;;;5040399;28;43451;-67
2022/08/26 03:13:59;;;;;;;4.50;4.10;;;26.00;66.30;;;;;;5042131;28;43461;-67
2022/08/26 03:16:36;;;;;;;4.82;4.43;;;26.00;66.40;;;;;;5030241;28;44925;-67
2022/08/26 03:19:06;;;;;;;4.93;4.53;;;26.00;66.40;;;;;;5037864;28;43897;-67
2022/08/26 03:21:35;;;;;;;5.30;4.80;;;25.90;66.20;;;;;;5030519;28;43441;-67
2022/08/26 03:24:04;;;;;;;4.57;4.28;;;26.00;66.50;;;;;;5040299;28;44117;-67
2022/08/26 03:26:32;;;;;;;5.07;4.57;;;25.90;66.40;;;;;;5031971;28;44052;-68
2022/08/26 03:31:46;;;;;;;4.47;4.18;;;25.90;66.40;;;;;;5032599;28;43403;-67
2022/08/26 03:34:14;;;;;;;5.22;4.70;;;25.90;66.30;;;;;;5029182;28;43478;-67
2022/08/26 03:36:42;;;;;;;5.10;4.70;;;25.90;66.30;;;;;;5031752;28;43799;-66
2022/08/26 03:39:10;;;;;;;4.50;4.10;;;25.90;66.40;;;;;;5038740;28;43767;-67
2022/08/26 03:41:39;;;;;;;5.13;4.70;;;25.90;66.40;;;;;;5028982;28;43411;-67
2022/08/26 03:44:10;;;;;;;5.03;4.63;;;25.90;66.30;;;;;;5038233;28;43482;-67
2022/08/26 03:46:38;;;;;;;;;;;25.90;66.40;;;;;;5034228;28;43783;-67
2022/08/26 03:49:06;;;;;;;4.97;4.57;;;25.90;66.40;;;;;;5039939;28;43681;-67
2022/08/26 03:51:35;;;;;;;4.53;4.10;;;25.90;66.40;;;;;;5040108;28;43446;-67
2022/08/26 03:54:06;;;;;;;4.80;4.30;;;25.90;66.40;;;;;;5029556;28;43495;-67
2022/08/26 03:56:35;;;;;;;5.05;4.55;;;25.90;66.40;;;;;;5037470;28;43771;-67
2022/08/26 03:59:03;;;;;;;4.43;4.13;;;25.90;66.40;;;;;;5040681;28;43782;-67
2022/08/26 04:01:34;;;;;;;;;;;25.90;66.40;;;;;;5030222;28;43404;-67
2022/08/26 04:04:02;;;;;;;4.85;4.40;;;25.90;66.40;;;;;;5033985;28;43626;-67
2022/08/26 04:06:37;;;;;;;4.80;4.40;;;25.90;66.50;;;;;;5030327;28;45211;-67
2022/08/26 04:09:08;;;;;;;4.90;4.50;;;25.90;66.50;;;;;;5028101;28;43785;-67
2022/08/26 04:11:38;;;;;;;4.78;4.35;;;25.90;66.40;;;;;;5039404;28;43414;-67
2022/08/26 04:14:12;;;;;;;5.10;4.60;;;25.90;66.50;;;;;;5039925;28;43572;-67
2022/08/26 04:16:41;;;;;;;4.88;4.47;;;25.90;66.50;;;;;;5039751;28;44911;-67
2022/08/26 04:19:11;;;;;;;4.82;4.32;;;25.90;66.50;;;;;;5028430;28;43687;-67
2022/08/26 04:21:39;;;;;;;5.13;4.72;;;25.80;66.40;;;;;;5048949;28;43418;-67
2022/08/26 04:24:09;;;;;;;5.20;4.70;;;25.90;66.50;;;;;;5039967;28;43507;-67
2022/08/26 04:26:39;;;;;;;4.50;4.10;;;25.90;66.50;;;;;;5039947;28;44963;-67
2022/08/26 04:29:27;;;;;;;4.88;4.45;;;25.90;66.50;;;;;;5037023;28;43387;-67
2022/08/26 04:31:56;;;;;;;4.80;4.40;;;25.90;66.40;;;;;;5036782;28;43440;-67
2022/08/26 04:34:25;;;;;;;5.60;4.85;;;25.80;66.40;;;;;;5038333;28;43606;-67
2022/08/26 04:36:57;;;;;;;4.75;4.35;;;25.80;66.40;;;;;;5027149;28;44196;-67
2022/08/26 04:39:26;;;;;;;5.38;4.88;;;25.80;66.40;;;;;;5038561;28;43487;-67
2022/08/26 04:41:54;;;;;;;4.80;4.40;;;25.90;66.50;;;;;;5041131;28;43475;-67
2022/08/26 04:44:26;;;;;;;4.80;4.40;;;25.80;66.50;;;;;;5043025;28;43557;-67
2022/08/26 04:46:55;;;;;;;4.65;4.25;;;25.80;66.50;;;;;;5030672;28;44002;-67
2022/08/26 04:49:22;;;;;;;4.65;4.20;;;25.80;66.40;;;;;;5030100;28;43711;-67
2022/08/26 04:51:52;;;;;;;4.93;4.50;;;25.80;66.50;;;;;;5040679;28;43455;-67
2022/08/26 04:54:21;;;;;;;5.07;4.43;;;25.80;66.50;;;;;;5044050;28;43455;-67
2022/08/26 04:56:49;;;;;;;4.70;4.30;;;25.80;66.50;;;;;;5029234;28;44627;-67
2022/08/26 04:59:17;;;;;;;4.57;4.18;;;25.80;66.50;;;;;;5032551;28;44016;-67
2022/08/26 05:01:50;;;;;;;4.93;4.22;;;25.80;66.50;;;;;;5041391;28;44095;-67
2022/08/26 05:04:19;;;;;;;5.22;4.72;;;25.80;66.50;;;;;;5030819;28;43676;-67
2022/08/26 05:06:49;;;;;;;5.10;4.70;;;25.80;66.50;;;;;;5040163;28;44983;-67
2022/08/26 05:09:18;;;;;;;5.13;4.65;;;25.80;66.50;;;;;;5035459;28;43783;-68
2022/08/26 05:11:47;;;;;;;5.22;4.35;;;25.80;66.50;;;;;;5042524;28;43383;-68
2022/08/26 05:14:19;;;;;;;5.13;4.63;;;25.80;66.50;;;;;;5029430;28;43441;-67
2022/08/26 05:16:48;;;;;;;5.00;4.60;;;25.70;66.40;;;;;;5029948;28;44784;-67
2022/08/26 05:19:16;;;;;;;4.85;4.47;;;25.70;66.50;;;;;;5037909;28;43967;-67
2022/08/26 05:21:47;;;;;;;4.55;4.18;;;25.70;66.50;;;;;;5042826;28;43478;-67
2022/08/26 05:24:15;;;;;;;5.00;4.53;;;25.70;66.50;;;;;;5029734;28;43645;-67
2022/08/26 05:26:46;;;;;;;5.22;4.72;;;25.70;66.80;;;;;;5036157;28;44225;-67
2022/08/26 05:29:15;;;;;;;5.05;4.60;;;25.70;66.50;;;;;;5043263;28;43481;-67
2022/08/26 05:31:43;;;;;;;4.90;4.50;;;25.70;66.60;;;;;;5042856;28;43368;-67
2022/08/26 05:34:11;;;;;;;4.90;4.47;;;25.70;66.60;;;;;;5030290;28;43536;-67
2022/08/26 05:36:39;;;;;;;4.80;4.28;;;25.70;66.60;;;;;;5032562;28;43801;-67
2022/08/26 05:39:07;;;;;;;4.80;4.40;;;25.70;66.60;;;;;;5041626;28;43955;-67
2022/08/26 05:41:39;;;;;;;4.78;4.38;;;25.70;66.60;;;;;;5030716;28;43600;-67
2022/08/26 05:44:10;;;;;;;4.97;4.47;;;25.70;66.60;;;;;;5039208;28;43426;-67
2022/08/26 05:46:39;;;;;;;5.07;4.50;;;25.70;66.60;;;;;;5035934;28;44987;-67
2022/08/26 05:49:07;;;;;;;4.57;4.18;;;25.70;66.60;;;;;;5041136;28;43532;-67
2022/08/26 05:51:40;;;;;;;5.13;4.72;;;25.70;66.60;;;;;;5031123;28;43446;-67
2022/08/26 05:54:08;;;;;;;4.55;4.15;;;25.70;66.60;;;;;;5038740;28;43503;-67
2022/08/26 05:56:38;;;;;;;5.03;4.47;;;25.70;66.60;;;;;;5039805;28;43989;-67
2022/08/26 05:59:06;;;;;;;4.72;4.32;;;25.70;66.50;;;;;;5042597;28;43695;-67
2022/08/26 06:01:41;;;;;;;4.50;4.20;;;25.70;66.50;;;;;;5030435;28;43450;-67
2022/08/26 06:04:10;;;;;;;5.10;4.60;;;25.70;66.50;;;;;;5033546;28;43507;-67
2022/08/26 06:06:40;;;;;;;4.65;4.25;;;25.70;66.60;;;;;;5040517;28;44697;-66
2022/08/26 06:09:11;;;;;;;4.88;4.47;;;25.70;66.60;;;;;;5030103;28;43434;-67
2022/08/26 06:11:39;;;;;;;4.80;4.40;;;25.70;66.70;;;;;;5041184;28;43467;-69
2022/08/26 06:14:07;;;;;;;5.05;4.65;;;25.70;66.60;;;;;;5041444;28;43454;-68
2022/08/26 06:16:38;;;;;;;4.70;4.30;;;25.70;66.60;;;;;;5041918;28;44052;-68
2022/08/26 06:19:09;;;;;;;5.13;4.60;;;25.70;66.60;;;;;;5040222;28;43510;-67
2022/08/26 06:21:41;;;;;;;4.55;4.20;;;25.70;66.70;;;;;;5038566;28;43457;-66
2022/08/26 06:27:03;;;;;;;4.50;4.05;;;25.70;66.80;;;;;;5040786;28;44505;-67
2022/08/26 06:29:33;;;;;;;4.93;4.45;;;25.70;66.70;;;;;;5027515;28;43716;-68
2022/08/26 06:32:04;;;;;;;5.00;4.47;;;25.70;66.70;;;;;;5039068;28;43384;-67
2022/08/26 06:34:32;;;;;;;5.03;4.53;;;25.70;66.80;;;;;;5039633;28;43547;-67
2022/08/26 06:37:04;;;;;;;4.57;4.18;;;25.70;66.80;;;;;;5028377;28;43796;-68
2022/08/26 06:39:33;;;;;;;4.95;4.45;;;25.70;66.80;;;;;;5036381;28;43677;-67
2022/08/26 06:42:01;;;;;;;4.53;4.13;;;25.70;66.80;;;;;;5036659;28;43411;-66
2022/08/26 06:44:33;;;;;;;4.80;4.28;;;25.70;66.70;;;;;;5039519;28;43514;-67
2022/08/26 06:47:01;;;;;;;5.32;4.53;;;25.70;66.70;;;;;;5038966;28;43806;-66
2022/08/26 06:49:28;;;;;;;4.93;4.43;;;25.70;66.70;;;;;;5028769;28;43967;-67
2022/08/26 06:51:59;;;;;;;4.20;3.90;;;25.70;66.60;;;;;;5039260;28;43422;-66
2022/08/26 06:54:29;;;;;;;4.80;4.40;;;25.70;66.60;;;;;;5041021;28;43517;-67
2022/08/26 06:56:56;;;;;;;4.60;4.17;;;25.70;66.60;;;;;;5028019;28;44205;-67
2022/08/26 06:59:24;;;;;;;4.97;4.20;;;25.70;66.60;;;;;;5033114;28;43832;-67
2022/08/26 07:01:53;;;;;;;5.25;4.28;;;25.70;66.60;;;;;;5038735;28;43510;-67
2022/08/26 07:04:23;;;;;;;4.63;4.22;;;25.70;66.70;;;;;;5028745;28;43451;-67
2022/08/26 07:06:51;;;;;;;4.05;3.75;;;25.70;66.60;;;;;;5028668;28;44947;-67
2022/08/26 07:09:27;;;;;;;4.53;4.13;;;25.70;66.60;;;;;;5034766;28;43968;-68
2022/08/26 07:11:55;;;;;;;4.07;3.78;;;25.70;66.60;;;;;;5041073;28;43471;-67
2022/08/26 07:14:24;;;;;;;4.70;4.28;;;25.70;66.60;;;;;;5039885;28;43639;-62
2022/08/26 07:16:53;;;;;;;6.53;4.63;;;25.70;66.70;;;;;;5028912;28;44704;-65
2022/08/26 07:19:22;;;;;;;4.82;4.00;;;25.60;67.20;;;;;;5031888;28;43998;-66
2022/08/26 07:22:01;;;;;;;4.82;4.35;;;25.60;66.70;;;;;;5042491;28;43579;-66
2022/08/26 07:24:31;;;;;;;4.47;4.07;;;25.70;66.80;;;;;;5038977;28;43482;-66
2022/08/26 07:27:04;;;;;;;5.03;4.07;;;25.70;66.60;;;;;;5040556;28;45033;-66
2022/08/26 07:29:33;;;;;;;5.03;3.92;;;25.70;66.60;;;;;;5039195;28;43424;-66
2022/08/26 07:32:01;;;;;;;4.93;4.00;;;25.70;66.60;;;;;;5034613;28;43472;-66
2022/08/26 07:34:30;;;;;;;4.50;4.10;;;25.70;66.70;;;;;;5040269;28;43626;-67
2022/08/26 07:36:59;;;;;;;4.05;3.75;;;25.70;66.60;;;;;;5038458;28;44691;-66
2022/08/26 07:39:29;;;;;;;5.30;4.15;;;25.70;66.60;;;;;;5040136;28;43928;-67
2022/08/26 07:42:00;;;;;;;4.22;3.83;;;25.70;66.60;;;;;;5040756;28;43426;-66
2022/08/26 07:44:35;;;;;;;5.13;3.83;;;25.70;66.60;;;;;;5039637;28;43506;-66
2022/08/26 07:47:02;;;;;;;4.40;4.00;;;25.70;66.70;;;;;;5040276;28;44723;-66
2022/08/26 07:49:37;;;;;;;4.00;3.60;;;25.70;66.70;;;;;;5038640;28;43452;-66
2022/08/26 07:52:05;;;;;;;4.47;3.80;;;25.70;66.60;;;;;;5033289;28;43536;-66
2022/08/26 07:54:33;;;;;;;4.00;3.40;;;25.70;66.60;;;;;;5034358;28;43639;-65
2022/08/26 07:57:00;;;;;;;4.10;3.60;;;25.70;66.60;;;;;;5039933;28;43815;-66
2022/08/26 07:59:34;;;;;;;4.68;3.90;;;25.70;66.60;;;;;;5038642;28;43475;-67
2022/08/26 08:02:02;;;;;;;4.05;3.45;;;25.70;66.60;;;;;;5041361;28;43510;-65
2022/08/26 08:04:29;;;;;;;4.05;3.75;;;25.70;66.60;;;;;;5037779;28;43555;-67
2022/08/26 08:06:57;;;;;;;4.53;3.78;;;25.70;66.50;;;;;;5039739;28;44995;-66
2022/08/26 08:09:25;;;;;;;4.63;4.03;;;25.70;66.50;;;;;;5038170;28;43970;-66
2022/08/26 08:11:53;;;;;;;4.10;3.70;;;25.70;66.50;;;;;;5043715;28;43475;-66
2022/08/26 08:14:20;;;;;;;3.97;3.58;;;25.80;66.60;;;;;;5040985;28;43535;-67
2022/08/26 08:16:49;;;;;;;4.05;3.63;;;25.80;66.60;;;;;;5043204;28;43739;-66
2022/08/26 08:19:20;;;;;;;3.92;3.58;;;25.80;66.50;;;;;;5041349;28;43984;-67
2022/08/26 08:21:48;;;;;;;4.22;3.55;;;25.70;66.60;;;;;;5043235;28;43490;-67
2022/08/26 08:24:17;;;;;;;3.83;3.30;;;25.70;66.70;;;;;;5040845;28;43472;-66
2022/08/26 08:26:44;;;;;;;5.07;3.33;;;25.70;66.60;;;;;;5042540;28;44075;-66
2022/08/26 08:29:12;;;;;;;3.70;3.40;;;25.70;66.60;;;;;;5056809;28;43422;-66
2022/08/26 08:31:40;;;;;;;5.63;3.60;;;25.70;66.60;;;;;;5042863;28;43482;-66
2022/08/26 08:34:27;;;;;;;3.47;3.17;;;25.70;66.60;;;;;;5041160;28;43474;-67
2022/08/26 08:36:56;;;;;;;3.90;3.33;;;25.70;66.60;;;;;;5039576;28;45032;-66
2022/08/26 08:39:25;;;;;;;3.92;3.17;;;25.70;66.60;;;;;;5042500;28;43463;-66
2022/08/26 08:42:14;;;;;;;4.60;3.28;;;25.70;66.60;;;;;;5041020;28;43540;-66
2022/08/26 08:44:45;;;;;;;3.60;3.13;;;25.70;66.60;;;;;;5042901;28;43418;-67
2022/08/26 08:47:33;;;;;;;3.55;3.22;;;25.70;66.60;;;;;;5038914;28;45287;-66
2022/08/26 08:50:23;;;;;;;3.90;3.60;;;25.70;66.60;;;;;;5040595;28;43957;-66
2022/08/26 08:53:14;;;;;;;4.95;3.25;;;25.70;66.50;;;;;;5042402;28;43478;-66
2022/08/26 08:56:02;;;;;;;3.88;3.08;;;25.70;66.60;;;;;;5042032;28;43523;-66
2022/08/26 08:59:03;;;;;;;4.07;2.90;;;25.70;66.60;;;;;;5040482;28;44673;-66
2022/08/26 09:01:40;;;;;;;4.47;3.03;;;25.70;66.60;;;;;;5017566;28;44032;-66
2022/08/26 09:04:37;;;;;;;3.97;3.28;;;25.70;66.60;;;;;;5043545;28;43396;-66
2022/08/26 09:07:11;;;;;;;3.05;2.60;;;25.70;66.50;;;;;;5030350;28;43587;-66
2022/08/26 09:09:40;;;;;;;3.15;2.83;;;25.70;66.60;;;;;;5034386;28;43793;-66
2022/08/26 09:12:15;;;;;;;3.83;2.77;;;25.70;66.70;;;;;;5041999;28;44521;-66
2022/08/26 09:14:47;;;;;;;4.05;3.15;;;25.70;66.60;;;;;;5027532;28;43451;-66
2022/08/26 09:17:40;;;;;;;4.07;2.85;;;25.70;66.70;;;;;;5033557;28;43449;-66
2022/08/26 09:20:36;;;;;;;3.17;2.70;;;25.70;66.70;;;;;;5031311;28;44670;-66
2022/08/26 09:23:03;;;;;;;4.20;2.80;;;25.70;66.70;;;;;;5034103;28;43488;-66
2022/08/26 09:25:31;;;;;;;3.70;2.97;;;25.60;66.70;;;;;;5032931;28;43482;-66
2022/08/26 09:28:00;;;;;;;3.03;2.60;;;25.60;66.60;;;;;;5037258;28;43437;-65
2022/08/26 09:30:34;;;;;;;2.83;2.63;;;25.60;66.60;;;;;;5039825;28;44986;-66
2022/08/26 09:33:13;;;;;;;2.90;2.60;;;25.60;66.70;;;;;;5034349;28;44190;-66
2022/08/26 09:35:47;;;;;;;4.68;3.10;;;25.60;66.70;;;;;;5042757;28;43435;-66
2022/08/26 09:38:25;;;;;;;3.50;3.03;;;25.60;66.70;;;;;;5034740;28;43424;-66
2022/08/26 09:41:00;;;;;;;2.78;2.58;;;25.60;66.70;;;;;;5033425;28;44975;-66
2022/08/26 09:43:28;;;;;;;3.33;2.40;;;25.60;66.70;;;;;;5039515;28;43447;-66
2022/08/26 09:46:22;;;;;;;3.78;2.75;;;25.60;66.80;;;;;;5033588;28;43400;-66
2022/08/26 09:48:50;;;;;;;3.28;2.70;;;25.60;66.70;;;;;;5026321;28;43427;-66
2022/08/26 09:51:21;;;;;;;3.75;2.72;;;25.60;66.70;;;;;;5028709;28;45245;-66
2022/08/26 09:53:53;;;;;;;3.80;2.60;;;25.60;66.80;;;;;;5040659;28;43496;-66
2022/08/26 09:56:25;;;;;;;3.40;2.40;;;25.60;66.70;;;;;;5039831;28;43771;-66
2022/08/26 09:58:55;;;;;;;2.72;2.30;;;25.60;66.80;;;;;;5042072;28;43544;-66
2022/08/26 10:01:22;;;;;;;3.83;2.30;;;25.60;66.70;;;;;;5031571;28;44029;-66
2022/08/26 10:03:50;;;;;;;2.95;2.45;;;25.60;66.80;;;;;;5030881;28;43475;-66
2022/08/26 10:06:21;;;;;;;2.75;2.47;;;25.60;66.80;;;;;;5038716;28;43388;-65
2022/08/26 10:08:53;;;;;;;3.05;2.60;;;25.60;66.80;;;;;;5030393;28;44028;-65
2022/08/26 10:11:25;;;;;;;2.80;2.53;;;25.60;66.80;;;;;;5039532;28;44001;-65
2022/08/26 10:13:58;;;;;;;2.50;2.30;;;25.60;66.80;;;;;;5039342;28;43652;-65
2022/08/26 10:16:55;;;;;;;3.10;2.78;;;25.60;66.80;;;;;;5041410;28;43384;-65
2022/08/26 10:19:41;;;;;;;3.03;2.30;;;25.50;66.80;;;;;;5026196;28;44018;-65
2022/08/26 10:22:34;;;;;;;6.13;2.58;;;25.50;66.80;;;;;;5032996;28;44938;-66
2022/08/26 10:25:06;;;;;;;4.82;2.55;;;25.50;66.80;;;;;;5038374;28;43467;-65
2022/08/26 10:27:49;;;;;;;2.58;2.38;;;25.50;66.80;;;;;;5041748;28;43559;-66
2022/08/26 10:30:24;;;;;;;2.50;2.30;;;25.50;66.80;;;;;;5034028;28;43527;-66
2022/08/26 10:33:01;;;;;;;3.10;2.50;;;25.50;66.80;;;;;;5040325;28;44679;-65
2022/08/26 10:35:31;;;;;;;3.10;2.25;;;25.50;66.80;;;;;;5039926;28;43859;-65
2022/08/26 10:38:03;;;;;;;3.67;2.40;;;25.50;66.80;;;;;;5042854;28;43410;-65
2022/08/26 10:40:47;;;;;;;3.25;2.40;;;25.50;66.80;;;;;;5033004;28;43494;-66
2022/08/26 10:43:24;;;;;;;3.40;2.50;;;25.50;66.80;;;;;;5035149;28;44940;-66
2022/08/26 10:45:55;;;;;;;3.95;2.33;;;25.50;66.80;;;;;;5042568;28;43351;-65
2022/08/26 10:48:36;;;;;;;3.38;2.60;;;25.50;67.50;;;;;;5031812;28;43495;-66
2022/08/26 10:51:04;;;;;;;;;;;25.50;66.80;;;;;;5031412;28;43539;-66
2022/08/26 10:53:41;;;;;;;3.65;2.67;;;25.50;66.90;;;;;;5041833;28;44335;-66
2022/08/26 10:56:36;;;;;;;2.63;2.30;;;25.50;66.90;;;;;;5029661;28;43426;-66
2022/08/26 10:59:30;;;;;;;2.38;2.15;;;25.50;66.90;;;;;;5041325;28;43482;-63
2022/08/26 11:02:13;;;;;;;6.15;2.38;;;25.50;66.80;;;;;;5039850;28;44167;-66
2022/08/26 11:04:54;;;;;;;4.18;2.50;;;25.50;66.80;;;;;;5040337;28;43886;-66
2022/08/26 11:07:43;;;;;;;3.05;2.33;;;25.50;66.80;;;;;;5039990;28;43948;-66
2022/08/26 11:10:19;;;;;;;3.03;2.13;;;25.50;66.80;;;;;;5037350;28;43454;-66
2022/08/26 11:12:57;;;;;;;4.38;2.45;;;25.60;66.70;;;;;;5040075;28;44168;-66
2022/08/26 11:15:25;;;;;;;3.13;2.20;;;25.50;66.60;;;;;;5041105;28;44067;-66
2022/08/26 11:17:58;;;;;;;3.53;2.22;;;25.50;66.60;;;;;;5040213;28;43918;-65
2022/08/26 11:20:35;;;;;;;2.22;2.00;;;25.50;66.60;;;;;;5040500;28;43557;-66
2022/08/26 11:23:12;;;;;;;2.60;2.05;;;25.60;66.70;;;;;;5039607;28;44058;-66
2022/08/26 11:25:55;;;;;;;2.47;2.08;;;25.60;66.70;;;;;;5038252;28;44059;-66
2022/08/26 11:28:35;;;;;;;2.92;2.10;;;25.50;66.60;;;;;;5035615;28;43414;-65
2022/08/26 11:31:08;;;;;;;4.03;2.38;;;25.50;66.60;;;;;;5040083;28;43495;-60
2022/08/26 11:33:57;;;;;;;2.72;2.08;;;25.50;66.80;;;;;;5037431;28;43465;-62
2022/08/26 11:36:40;;;;;;;4.32;2.00;;;25.50;67.50;;;;;;5038700;28;44122;-67
2022/08/26 11:39:27;;;;;;;2.20;1.92;;;25.60;67.20;;;;;;5037618;28;43964;-66
2022/08/26 11:42:01;;;;;;;3.67;2.05;;;25.50;66.90;;;;;;5038533;28;43545;-67
2022/08/26 11:44:42;;;;;;;3.45;2.33;;;25.50;67.00;;;;;;5040111;28;43493;-67
2022/08/26 11:47:25;;;;;;;3.42;2.30;;;25.50;67.10;;;;;;5036407;28;44704;-67
2022/08/26 11:50:15;;;;;;;3.78;2.10;;;25.50;67.10;;;;;;5042771;28;44276;-67
2022/08/26 11:52:51;;;;;;;3.22;2.20;;;25.50;67.20;;;;;;5045348;28;43442;-67
2022/08/26 11:55:19;;;;;;;4.05;2.20;;;25.50;67.10;;;;;;5045225;28;43499;-67
2022/08/26 11:57:54;;;;;;;4.38;2.20;;;25.50;67.10;;;;;;5042612;28;44164;-68
2022/08/26 12:00:47;;;;;;;3.03;2.10;;;25.40;67.10;;;;;;5038165;28;44031;-68
2022/08/26 12:03:22;;;;;;;3.47;2.20;;;25.50;67.10;;;;;;5041485;28;43541;-66
2022/08/26 12:05:51;;;;;;;3.42;1.90;;;25.50;67.00;;;;;;5040713;28;43429;-66
2022/08/26 12:08:24;;;;;;;4.63;2.33;;;25.50;66.90;;;;;;5043547;28;44800;-67
2022/08/26 12:11:09;;;;;;;2.60;2.05;;;25.50;67.00;;;;;;5043466;28;43695;-67
2022/08/26 12:13:37;;;;;;;3.30;2.00;;;25.50;67.10;;;;;;5040689;28;43465;-66
2022/08/26 12:16:06;;;;;;;3.67;2.00;;;25.50;67.10;;;;;;5043261;28;43500;-66
2022/08/26 12:18:37;;;;;;;2.92;1.90;;;25.50;67.00;;;;;;5042706;28;44061;-66
2022/08/26 12:21:15;;;;;;;2.85;1.98;;;25.50;67.00;;;;;;5041324;28;43727;-66
2022/08/26 12:23:45;;;;;;;2.90;1.92;;;25.50;67.20;;;;;;5039692;28;43800;-65
2022/08/26 12:26:33;;;;;;;4.30;1.92;;;25.50;67.00;;;;;;5043465;28;43376;-65
2022/08/26 12:29:03;;;;;;;3.08;1.85;;;25.60;67.10;;;;;;5041240;28;43878;-66
2022/08/26 12:31:46;;;;;;;2.95;2.00;;;25.60;67.20;;;;;;5042956;28;43528;-65
2022/08/26 12:34:16;;;;;;;2.13;1.70;;;25.60;67.10;;;;;;5043475;28;43442;-65
2022/08/26 12:36:56;;;;;;;2.53;2.10;;;25.60;67.00;;;;;;5043480;28;43467;-65
2022/08/26 12:39:27;;;;;;;3.50;1.90;;;25.60;66.90;;;;;;5039409;28;44067;-65
2022/08/26 12:41:55;;;;;;;;;;;25.60;67.10;;;;;;5043872;28;44004;-66
2022/08/26 12:44:49;;;;;;;3.83;1.92;;;25.60;67.10;;;;;;5043211;28;43434;-66
2022/08/26 12:47:33;;;;;;;3.20;1.98;;;25.60;67.20;;;;;;5042621;28;43449;-66
2022/08/26 12:50:26;;;;;;;2.85;1.85;;;25.60;67.20;;;;;;5041196;28;45040;-65
2022/08/26 12:53:04;;;;;;;5.18;1.90;;;25.50;67.10;;;;;;5042135;28;43695;-65
2022/08/26 12:55:31;;;;;;;5.28;2.05;;;25.50;67.20;;;;;;5043567;28;43971;-66
2022/08/26 12:58:22;;;;;;;4.80;2.22;;;25.60;67.20;;;;;;5042663;28;43554;-66
2022/08/26 13:01:03;;;;;;;2.33;1.80;;;25.50;67.20;;;;;;5041093;28;44014;-66
2022/08/26 13:03:36;;;;;;;4.28;2.00;;;25.50;67.20;;;;;;5054795;28;43486;-65
2022/08/26 13:06:28;;;;;;;2.47;1.80;;;25.50;67.20;;;;;;5042810;28;43549;-66
2022/08/26 13:09:08;;;;;;;2.65;1.70;;;25.50;67.20;;;;;;5038660;28;43531;-66
2022/08/26 13:11:38;;;;;;;3.63;1.83;;;25.50;67.10;;;;;;5040161;28;44962;-66
2022/08/26 13:14:07;;;;;;;3.92;1.90;;;25.50;67.20;;;;;;5039082;28;44020;-66
2022/08/26 13:16:38;;;;;;;3.42;1.65;;;25.50;67.10;;;;;;5040368;28;43405;-66
2022/08/26 13:19:08;;;;;;;3.03;1.85;;;25.50;67.10;;;;;;5042103;28;43636;-66
2022/08/26 13:21:47;;;;;;;3.17;2.10;;;25.50;67.10;;;;;;5038731;28;44080;-66
2022/08/26 13:24:20;;;;;;;2.65;1.73;;;25.50;67.00;;;;;;5041052;28;43348;-65